Weather observations for the past three days for
Brunswick County Airport
Imperial (Metric)
Date Time (edt) Wind (mph) Vis. (mi.) Weather Sky Cond. Temperature (ºF) Relative Humidity Wind Chill (°F) Heat Index (°F) Pressure Precipitation (in)
Air Dwpt 6 hour altimeter (in) sea level (mb) 1 hr 3 hr 6 hr
Max. Min.
09 05:35 NE 2 10.00 Overcast SCT042 OVC110 60.8 59 94% 29.92 0.0
09 05:15 N 2 10.00 Light Rain OVC110 60.8 57.2 88% 29.92 0.0
09 04:55 NE 2 10.00 Overcast OVC110 59 57.2 94% 29.92 0.0
09 04:35 NE 2 10.00 Mostly Cloudy BKN120 59 57.2 94% 29.93 0.0
09 04:15 NE 2 10.00 Partly Cloudy SCT120 59 57.2 94% 29.94 0.0
09 03:55 N 3 10.00 Fair CLR 59 57.2 94% 29.95 0.0
09 03:35 NW 1 10.00 Fair CLR 59 57.2 94% 29.95 0.0
09 03:15 NE 3 10.00 Fair CLR 59 57.2 94% 29.94 0.0
09 02:55 NE 2 10.00 Fair CLR 59 57.2 94% 29.95 0.0
09 02:35 NE 3 8.00 Fair CLR 59 57.2 94% 29.96 0.0
09 02:15 N 3 10.00 Fair CLR 59 57.2 94% 29.97 0.0
09 01:55 Calm 10.00 Fair CLR 59 57.2 65.5 59.2 94% 29.98 0.0
09 01:35 Calm 10.00 Fair CLR 59 57.2 94% 29.99 0.0
09 01:15 NW 1 10.00 Fair CLR 60.8 57.2 88% 30 0.0
09 00:55 N 2 9.00 Fair CLR 59 57.2 94% 30 0.0
09 00:35 N 1 10.00 Fair CLR 60.8 57.2 88% 29.99 0.0
09 00:15 N 2 10.00 Fair CLR 60.8 57.2 88% 29.99 0.0
08 23:55 N 3 10.00 Fair CLR 60.8 57.2 88% 29.99 0.0
08 23:35 N 1 10.00 Fair CLR 60.8 57.2 88% 30 0.0
08 23:15 N 2 10.00 Fair CLR 62.6 57.2 83% 30.01 0.0
08 22:55 NE 1 10.00 Fair CLR 60.8 57.2 88% 30.01 0.0
08 22:35 NE 2 10.00 Fair CLR 62.6 57.2 83% 30.01 0.0
08 22:15 E 1 10.00 Fair CLR 62.6 57.2 83% 30.01 0.0
08 21:55 N 1 10.00 Fair CLR 62.6 57.2 83% 30.01 0.0
08 21:35 Calm 10.00 Fair CLR 66.2 57.2 73% 30 0.0
08 21:15 Vrbl 2 10.00 Fair CLR 66.2 57.2 73% 30 0.0
08 20:55 E 3 10.00 Fair CLR 66.2 57.2 73% 29.99 0.0
08 20:35 SE 3 10.00 Fair CLR 64.4 57.2 78% 29.99 0.0
08 20:15 Vrbl 3 10.00 Fair CLR 66.2 57.2 73% 29.99 0.0
08 19:55 Vrbl 5 10.00 Fair CLR 66.2 55.4 70.9 65.3 68% 29.99 0.0
08 19:35 SE 6 10.00 Fair CLR 66.2 55.4 68% 29.99 0.0
08 18:55 E 6 10.00 Fair CLR 66.2 53.6 64% 29.99 0.0
08 18:35 E 7 10.00 Fair CLR 66.2 55.4 68% 29.99 0.0
08 18:15 SE 8 10.00 Fair CLR 66.2 55.4 68% 29.99 0.0
08 17:55 E 7 10.00 Fair CLR 66.2 53.6 64% 29.98 0.0
08 17:35 E 8 10.00 Fair CLR 66.2 53.6 64% 29.99 0.0
08 17:15 E 10 10.00 Fair CLR 66.2 53.6 64% 29.98 0.0
08 16:55 E 10 10.00 Fair CLR 66.2 53.6 64% 29.99 0.0
08 16:35 E 10 10.00 Fair CLR 68 53.6 60% 30 0.0
08 16:15 E 9 10.00 Fair CLR 68 53.6 60% 30 0.0
08 15:35 E 8 10.00 Fair CLR 68 48.2 49% 30 0.0
08 15:15 E 9 10.00 Fair CLR 68 48.2 49% 30.01 0.0
08 14:55 E 9 10.00 Fair CLR 68 48.2 49% 30.01 0.0
08 14:35 E 9 10.00 Fair CLR 69.8 50 50% 30.02 0.0
08 14:15 E 9 10.00 Fair CLR 69.8 46.4 43% 30.02 0.0
08 13:35 E 10 10.00 Fair CLR 68 50 53% 30.03 0.0
08 13:15 E 8 10.00 Fair CLR 68 50 53% 30.03 0.0
08 12:55 NE 7 10.00 Fair CLR 68 50 53% 30.03 0.0
08 12:35 E 6 10.00 Fair CLR 68 50 53% 30.04 0.0
08 12:15 NE 9 10.00 Fair CLR 68 50 53% 30.04 0.0
08 11:55 E 10 10.00 Fair CLR 68 51.8 56% 30.04 0.0
08 11:35 NE 8 10.00 Fair CLR 68 50 53% 30.04 0.0
08 11:15 NE 8 10.00 Fair CLR 68 50 53% 30.04 0.0
08 10:55 NE 9 10.00 Fair CLR 66.2 51.8 60% 30.04 0.0
08 10:35 NE 13 G 16 10.00 Fair CLR 66.2 50 56% 30.04 0.0
08 10:15 NE 9 10.00 Fair CLR 66.2 51.8 60% 30.03 0.0
08 09:35 N 13 G 17 10.00 Fair CLR 62.6 51.8 68% 30.02 0.0
08 09:15 N 10 10.00 Fair CLR 60.8 53.6 77% 30.02 0.0
08 08:55 N 9 10.00 Fair CLR 59 53.6 82% 30.02 0.0
08 08:35 N 10 10.00 Partly Cloudy SCT007 57.2 53.6 88% 30.01 0.0
08 08:15 N 9 10.00 Overcast OVC005 55.4 53.6 94% 30.01 0.0
08 07:55 N 8 10.00 Overcast OVC005 53.6 51.8 56.7 52.2 94% 30 0.0
08 07:35 N 8 10.00 Overcast OVC003 53.6 51.8 94% 30 0.0
08 07:15 N 7 10.00 Overcast OVC003 53.6 51.8 94% 30 0.0
08 06:55 N 12 10.00 Overcast OVC003 51.8 51.8 100% 29.99 0.0
08 06:35 N 8 10.00 Overcast BKN003 OVC060 51.8 51.8 100% 29.98 0.0
08 06:15 N 7 10.00 Mostly Cloudy BKN060 51.8 51.8 100% 29.97 0.0
08 05:55 N 6 10.00 A Few Clouds FEW060 51.8 51.8 100% 29.96 0.0
08 05:35 N 7 10.00 Fair CLR 51.8 51.8 100% 29.95 0.0
08 05:15 N 7 10.00 A Few Clouds FEW060 51.8 51.8 100% 29.95 0.0
08 04:55 N 5 10.00 Fair CLR 53.6 51.8 94% 29.94 0.0
08 04:35 N 6 10.00 A Few Clouds FEW006 53.6 51.8 94% 29.93 0.0
08 04:15 N 6 10.00 Partly Cloudy SCT004 53.6 51.8 94% 29.93 0.0
08 03:55 N 5 10.00 A Few Clouds FEW004 53.6 53.6 100% 29.92 0.0
08 03:35 N 3 10.00 Fair CLR 55.4 53.6 94% 29.91 0.0
08 03:15 N 6 10.00 Fair CLR 55.4 53.6 94% 29.91 0.0
08 02:55 N 7 10.00 Fair CLR 55.4 53.6 94% 29.9 0.0
08 02:35 N 7 10.00 Fair CLR 55.4 53.6 94% 29.9 0.0
08 02:15 N 7 10.00 Fair CLR 55.4 55.4 100% 29.9 0.0
08 01:55 N 8 10.00 Fair CLR 57.2 55.4 70.3 56.7 94% 29.9 0.0
08 01:35 N 6 10.00 A Few Clouds FEW044 57.2 55.4 94% 29.89 0.0
08 01:15 N 7 10.00 Partly Cloudy FEW005 SCT042 57.2 55.4 94% 29.9 0.0
08 00:55 N 9 10.00 Overcast SCT005 OVC042 59 55.4 88% 29.89 0.0
08 00:35 N 9 10.00 Overcast OVC005 59 57.2 94% 29.89 0.0
08 00:15 N 9 10.00 Overcast OVC005 59 57.2 94% 29.88 0.0
07 23:55 N 14 G 22 10.00 Overcast OVC007 59 57.2 94% 29.88 0.0
07 23:35 N 15 10.00 Overcast OVC007 60.8 59 94% 29.87 0.0
07 23:15 N 12 10.00 Overcast OVC007 62.6 60.8 94% 29.85 0.0
07 22:55 N 15 10.00 Overcast OVC007 64.4 62.6 94% 29.84 0.0
07 22:35 N 10 10.00 Mostly Cloudy SCT007 SCT015 BKN022 69.8 68 94% 29.82 0.0
07 22:15 SW 7 10.00 Partly Cloudy SCT026 SCT033 SCT040 69.8 68 94% 29.8 0.0
07 21:55 W 8 10.00 Mostly Cloudy BKN019 BKN026 69.8 68 94% 29.8 0.0
07 21:35 W 10 10.00 Mostly Cloudy BKN024 69.8 68 94% 29.78 0.0
07 21:15 W 9 10.00 A Few Clouds FEW022 69.8 68 94% 29.78 0.0
07 20:55 W 7 10.00 Fair CLR 69.8 68 94% 29.77 0.0
07 20:35 W 6 10.00 Fair CLR 69.8 68 94% 29.76 0.0
07 20:15 SW 9 10.00 Fair CLR 69.8 68 94% 29.76 0.0
07 19:55 SW 13 10.00 Fair CLR 69.8 66.2 73.9 67.6 88% 29.75 0.0
07 19:35 SW 9 10.00 A Few Clouds FEW032 69.8 66.2 88% 29.75 0.0
07 19:15 SW 10 10.00 Mostly Cloudy BKN032 71.6 66.2 83% 29.76 0.0
07 18:55 SW 13 10.00 Overcast OVC030 71.6 66.2 83% 29.76 0.0
07 18:35 W 13 10.00 Overcast OVC026 71.6 66.2 83% 29.77 0.0
07 18:15 SW 15 G 21 10.00 Mostly Cloudy BKN028 71.6 66.2 83% 29.77 0.0
07 17:55 SW 16 9.00 Fair CLR 73.4 66.2 78% 29.77 0.0
07 17:35 SW 18 G 24 9.00 Fair CLR 73.4 68 83% 29.76 0.0
07 17:15 SW 17 G 21 10.00 A Few Clouds FEW100 73.4 68 83% 29.75 0.0
07 16:55 S 12 8.00 Partly Cloudy SCT100 71.6 68 88% 29.75 0.0 0.01
07 16:35 SW 7 10.00 Fair CLR 69.8 68 94% 29.76 0.0
07 16:15 Vrbl 5 10.00 Light Drizzle FEW033 SCT042 SCT090 69.8 66.2 88% 29.75 0.0
07 15:55 SW 10 9.00 Light Rain BKN042 OVC055 68 66.2 94% 29.78 0.0 0.06
07 15:35 SW 10 6.00 Light Rain Fog/Mist BKN070 BKN085 BKN110 68 66.2 94% 29.79 0.0
07 15:15 W 13 G 18 5.00 Light Rain Fog/Mist BKN049 BKN070 OVC110 69.8 66.2 88% 29.8 0.0
07 14:55 SW 15 7.00 Light Rain Fog/Mist SCT032 BKN039 OVC065 71.6 68 88% 29.8 0.0 0.01
07 14:35 SW 10 7.00 Light Rain Fog/Mist FEW044 OVC060 71.6 68 88% 29.82 0.0
07 14:15 SW 10 8.00 Partly Cloudy SCT050 SCT110 71.6 68 88% 29.82 0.0
07 13:55 SW 9 10.00 Mostly Cloudy FEW050 SCT090 BKN110 71.6 68 73.2 71.1 88% 29.83 0.0
07 13:35 SW 10 10.00 Overcast FEW055 OVC080 71.6 68 88% 29.83 0.0
07 13:15 W 8 10.00 Overcast FEW075 BKN095 OVC110 71.6 68 88% 29.83 0.0
07 12:55 W 13 10.00 Overcast FEW075 BKN095 OVC110 73.4 66.2 78% 29.85 0.0
07 12:35 SW 13 10.00 Overcast FEW075 OVC095 73.4 68 83% 29.84 0.0
07 12:15 SW 14 8.00 Overcast BKN095 OVC120 73.4 69.8 89% 29.84 0.0
07 11:55 SW 12 8.00 Overcast OVC095 71.6 68 88% 29.86 0.0
07 11:35 SW 14 9.00 Overcast BKN095 OVC110 71.6 68 88% 29.86 0.0
07 11:15 SW 7 9.00 Mostly Cloudy BKN095 BKN120 71.6 68 88% 29.84 0.0
07 10:55 SW 12 10.00 Partly Cloudy SCT120 73.4 69.8 89% 29.85 0.0
07 10:35 SW 6 8.00 A Few Clouds FEW028 FEW050 FEW120 71.6 68 88% 29.84 0.0
07 10:15 SW 8 8.00 Light Rain FEW033 SCT095 SCT120 71.6 69.8 94% 29.85 0.0
07 09:55 SW 10 10.00 Fair CLR 71.6 68 88% 29.84 0.0
07 09:35 SW 8 10.00 Partly Cloudy SCT110 71.6 68 88% 29.83 0.0
07 09:15 SW 8 10.00 Partly Cloudy SCT110 71.6 69.8 94% 29.86 0.0
07 08:55 SW 14 9.00 Partly Cloudy FEW070 SCT090 71.6 69.8 94% 29.9 0.0
07 08:35 SW 8 8.00 Light Rain FEW070 OVC100 71.6 69.8 94% 29.89 0.0
07 08:15 SW 9 10.00 Mostly Cloudy BKN100 71.6 69.8 94% 29.9 0.0
07 07:55 SW 12 10.00 Fair CLR 71.6 69.8 72 70.3 94% 29.89 0.0 0.01
07 07:35 SW 13 G 20 10.00 Mostly Cloudy FEW060 SCT075 BKN100 71.6 69.8 94% 29.9 0.0
07 07:15 SW 12 10.00 Overcast SCT065 BKN090 OVC120 71.6 69.8 94% 29.91 0.0
07 06:55 SW 10 7.00 Light Drizzle SCT055 BKN070 OVC110 71.6 69.8 94% 29.91 0.0 0.03
07 06:35 SW 8 8.00 Light Rain SCT060 BKN070 OVC110 69.8 69.8 100% 29.91 0.0
07 06:15 SW 7 6.00 Light Rain Fog/Mist SCT055 BKN070 OVC085 69.8 69.8 100% 29.91 0.0
07 05:55 W 7 7.00 Light Rain Fog/Mist FEW065 BKN080 OVC110 71.6 68 88% 29.9 0.0 0.01
07 05:35 SW 8 10.00 Mostly Cloudy FEW090 BKN110 71.6 68 88% 29.89 0.0
07 05:15 SW 7 10.00 Light Rain SCT110 71.6 68 88% 29.87 0.0
07 04:55 S 7 10.00 Overcast OVC110 71.6 68 88% 29.88 0.0
07 04:35 SW 8 10.00 Mostly Cloudy BKN110 71.6 68 88% 29.88 0.0
07 04:15 SW 9 10.00 Mostly Cloudy BKN120 71.6 68 88% 29.88 0.0
07 03:55 S 9 10.00 Partly Cloudy SCT120 69.8 68 94% 29.86 0.0
07 03:15 SW 15 G 20 10.00 Light Rain BKN110 71.6 68 88% 29.87 0.0
07 02:55 S 12 10.00 Light Drizzle FEW075 BKN110 71.6 68 88% 29.89 0.0
07 02:35 W 9 10.00 Mostly Cloudy FEW015 BKN075 BKN110 71.6 69.8 94% 29.93 0.0
07 02:15 W 13 10.00 Light Rain FEW012 BKN075 OVC085 71.6 69.8 94% 29.95 0.0
07 01:55 SW 10 10.00 Overcast OVC085 71.6 68 71.8 70.7 88% 29.94 0.0
07 01:35 SW 12 10.00 Mostly Cloudy BKN095 71.6 68 88% 29.94 0.0
07 01:15 SW 12 10.00 Fair CLR 71.6 68 88% 29.94 0.0
07 00:55 SW 10 10.00 Fair CLR 71.6 68 88% 29.94 0.0
07 00:35 SW 8 10.00 Fair CLR 71.6 68 88% 29.94 0.0
07 00:15 W 7 10.00 Fair CLR 71.6 68 88% 29.93 0.0
06 23:55 SW 5 10.00 Fair CLR 71.6 68 88% 29.92 0.0
06 23:35 S 6 10.00 Fair CLR 71.6 68 88% 29.92 0.0
06 23:15 SW 8 10.00 Fair CLR 71.6 68 88% 29.93 0.0
06 22:55 SW 9 10.00 Fair CLR 71.6 68 88% 29.94 0.0
06 22:35 SW 9 10.00 Fair CLR 71.6 68 88% 29.95 0.0
06 22:15 SW 10 10.00 Fair CLR 71.6 68 88% 29.95 0.0
06 21:55 SW 10 10.00 Fair CLR 71.6 68 88% 29.94 0.0
06 21:35 SW 9 10.00 Fair CLR 71.6 68 88% 29.95 0.0
06 21:15 SW 10 10.00 Fair CLR 71.6 68 88% 29.95 0.0
06 20:55 SW 10 10.00 Fair CLR 71.6 66.2 83% 29.95 0.0
06 20:35 SW 12 G 17 10.00 Fair CLR 71.6 66.2 83% 29.94 0.0
06 20:15 SW 12 G 17 10.00 Fair CLR 71.6 66.2 83% 29.94 0.0
06 19:55 SW 12 10.00 Fair CLR 71.6 66.2 78.6 71.6 83% 29.94 0.0
06 19:35 SW 13 10.00 Fair CLR 71.6 66.2 83% 29.94 0.0
06 19:15 SW 12 G 18 10.00 Fair CLR 73.4 66.2 78% 29.94 0.0
06 18:55 SW 14 G 20 10.00 Fair CLR 73.4 66.2 78% 29.93 0.0
06 18:35 SW 13 G 21 10.00 Fair CLR 73.4 66.2 78% 29.94 0.0
06 18:15 SW 14 G 22 10.00 Fair CLR 75.2 66.2 74% 77 29.94 0.0
06 17:55 S 9 G 17 10.00 Fair CLR 73.4 66.2 78% 29.94 0.0
06 17:35 S 13 G 20 10.00 Fair CLR 73.4 66.2 78% 29.94 0.0
06 17:15 S 12 G 18 10.00 Fair CLR 73.4 66.2 78% 29.95 0.0
06 16:55 S 13 G 18 10.00 Fair CLR 73.4 66.2 78% 29.94 0.0
06 16:35 S 10 G 16 10.00 Fair CLR 75.2 66.2 74% 77 29.94 0.0
06 16:15 SW 15 G 23 10.00 Fair CLR 75.2 66.2 74% 77 29.96 0.0
06 15:55 SW 15 G 22 10.00 Fair CLR 77 64.4 65% 79 29.97 0.0
06 15:35 SW 14 G 18 10.00 Fair CLR 77 66.2 69% 79 29.97 0.0
06 15:15 SW 13 G 22 10.00 Fair CLR 77 66.2 69% 79 29.99 0.0
06 14:55 SW 14 10.00 Partly Cloudy SCT080 77 66.2 69% 79 30 0.0
06 14:35 SW 18 10.00 A Few Clouds FEW080 77 64.4 65% 79 30.01 0.0
06 14:15 SW 13 G 17 10.00 Fair CLR 77 66.2 69% 79 30.01 0.0
06 13:55 SW 13 10.00 Fair CLR 75.2 64.4 77.9 70.9 69% 77 30.01 0.0
06 13:35 SW 16 10.00 Fair CLR 77 64.4 65% 79 30.02 0.0
06 13:15 SW 15 10.00 Fair CLR 75.2 64.4 69% 77 30.01 0.0
06 12:55 SW 13 10.00 Fair CLR 77 62.6 61% 79 30.02 0.0
06 12:35 SW 14 G 21 10.00 Fair CLR 77 64.4 65% 79 30.03 0.0
06 12:15 SW 16 10.00 Fair CLR 77 62.6 61% 79 30.03 0.0
06 11:55 SW 15 G 22 10.00 Fair CLR 77 64.4 65% 79 30.03 0.0
06 11:35 SW 14 10.00 Fair CLR 75.2 64.4 69% 77 30.03 0.0
06 11:15 SW 14 10.00 Fair CLR 75.2 64.4 69% 77 30.03 0.0
06 10:55 SW 14 10.00 Fair CLR 75.2 64.4 69% 77 30.03 0.0
06 10:35 SW 13 10.00 Fair CLR 75.2 64.4 69% 77 30.03 0.0
06 10:15 SW 12 10.00 Fair CLR 73.4 64.4 74% 30.03 0.0
06 09:55 SW 14 G 20 10.00 Fair CLR 75.2 64.4 69% 77 30.03 0.0
06 09:35 SW 14 10.00 Fair CLR 73.4 64.4 74% 30.03 0.0
06 09:15 SW 12 10.00 Fair CLR 73.4 66.2 78% 30.02 0.0
06 08:55 SW 14 10.00 Fair CLR 73.4 66.2 78% 30.02 0.0
06 08:35 SW 14 10.00 A Few Clouds FEW031 73.4 66.2 78% 30.02 0.0
06 08:15 SW 10 10.00 A Few Clouds FEW031 71.6 66.2 83% 30.02 0.0
06 07:55 SW 9 10.00 A Few Clouds FEW033 71.6 66.2 71.8 67.5 83% 30.02 0.0
06 07:35 S 7 10.00 A Few Clouds FEW033 71.6 64.4 78% 30.01 0.0
06 06:55 SW 7 10.00 Fair CLR 69.8 64.4 83% 30.01 0.0
06 06:35 S 6 10.00 Fair CLR 69.8 64.4 83% 30.01 0.0
06 06:15 SW 7 10.00 Fair CLR 68 64.4 88% 30 0.0
06 05:55 S 5 10.00 Fair CLR 69.8 64.4 83% 30 0.0
Date Time (edt) Wind (mph) Vis. (mi.) Weather Sky Cond. Air Dwpt Max. Min. Relative Humidity Wind Chill (°F) Heat Index (°F) altimeter (in) sea level (mb) 1 hr 3 hr 6 hr
6 hour
Temperature (ºF) Pressure Precipitation (in)